createdAt,value
2023-02-08T00:00:46.577Z,-8.60
2023-02-08T00:03:13.429Z,-8.60
2023-02-08T00:05:40.882Z,-8.63
2023-02-08T00:08:09.057Z,-8.65
2023-02-08T00:10:35.913Z,-8.69
2023-02-08T00:13:02.959Z,-8.69
2023-02-08T00:15:30.189Z,-8.69
2023-02-08T00:17:57.070Z,-8.70
2023-02-08T00:20:23.773Z,-8.72
2023-02-08T00:22:52.527Z,-8.74
2023-02-08T00:25:20.256Z,-8.76
2023-02-08T00:27:47.168Z,-8.77
2023-02-08T00:30:14.332Z,-8.78
2023-02-08T00:32:41.994Z,-8.77
2023-02-08T00:35:09.150Z,-8.80
2023-02-08T00:37:35.989Z,-8.82
2023-02-08T00:40:05.238Z,-8.86
2023-02-08T00:42:32.233Z,-8.90
2023-02-08T00:44:59.136Z,-8.92
2023-02-08T00:47:26.019Z,-8.94
2023-02-08T00:49:53.993Z,-8.95
2023-02-08T00:52:20.942Z,-8.96
2023-02-08T00:54:47.761Z,-8.97
2023-02-08T00:57:14.928Z,-8.99
2023-02-08T00:59:42.391Z,-9.02
2023-02-08T01:02:09.186Z,-9.04
2023-02-08T01:04:36.492Z,-9.08
2023-02-08T01:07:04.492Z,-9.12
2023-02-08T01:09:31.286Z,-9.16
2023-02-08T01:11:57.984Z,-9.19
2023-02-08T01:14:25.395Z,-9.22
2023-02-08T01:16:52.853Z,-9.24
2023-02-08T01:19:19.799Z,-9.26
2023-02-08T01:21:48.797Z,-9.28
2023-02-08T01:24:16.278Z,-9.30
2023-02-08T01:26:43.301Z,-9.32
2023-02-08T01:29:10.590Z,-9.34
2023-02-08T01:31:40.296Z,-9.34
2023-02-08T01:34:08.434Z,-9.38
2023-02-08T01:36:35.824Z,-9.43
2023-02-08T01:39:04.375Z,-9.46
2023-02-08T01:41:33.954Z,-9.48
2023-02-08T01:44:01.044Z,-9.48
2023-02-08T01:46:28.802Z,-9.48
2023-02-08T01:48:57.796Z,-9.49
2023-02-08T01:51:28.421Z,-9.48
2023-02-08T01:53:55.400Z,-9.51
2023-02-08T01:56:28.556Z,-9.53
2023-02-08T01:58:57.566Z,-9.54
2023-02-08T02:01:24.799Z,-9.56
2023-02-08T02:03:51.763Z,-9.55
2023-02-08T02:06:25.513Z,-9.57
2023-02-08T02:09:33.164Z,-9.60
2023-02-08T02:12:00.721Z,-9.62
2023-02-08T02:14:27.734Z,-9.62
2023-02-08T02:16:54.950Z,-9.64
2023-02-08T02:19:31.183Z,-9.65
2023-02-08T02:22:14.831Z,-9.68
2023-02-08T02:24:59.614Z,-9.71
2023-02-08T02:27:45.778Z,-9.75
2023-02-08T02:30:25.267Z,-9.78
2023-02-08T02:33:10.597Z,-9.80
2023-02-08T02:35:49.530Z,-9.83
2023-02-08T02:38:20.674Z,-9.86
2023-02-08T02:40:53.626Z,-9.91
2023-02-08T02:43:43.643Z,-9.95
2023-02-08T02:46:24.220Z,-10.00
2023-02-08T02:49:03.969Z,-10.01
2023-02-08T02:51:57.322Z,-10.02
2023-02-08T02:54:25.273Z,-10.02
2023-02-08T02:56:59.680Z,-10.02
2023-02-08T02:59:26.763Z,-10.02
2023-02-08T03:01:54.089Z,-10.02
2023-02-08T03:04:33.071Z,-10.01
2023-02-08T03:07:21.816Z,-10.00
2023-02-08T03:10:22.687Z,-9.99
2023-02-08T03:13:37.458Z,-9.98
2023-02-08T03:16:07.737Z,-9.97
2023-02-08T03:18:42.668Z,-9.95
2023-02-08T03:21:12.233Z,-9.95
2023-02-08T03:23:51.356Z,-9.97
2023-02-08T03:26:23.276Z,-10.00
2023-02-08T03:29:01.893Z,-10.02
2023-02-08T03:31:33.148Z,-10.04
2023-02-08T03:34:12.419Z,-10.06
2023-02-08T03:37:26.500Z,-10.07
2023-02-08T03:39:58.296Z,-10.09
2023-02-08T03:42:25.543Z,-10.14
2023-02-08T03:45:05.176Z,-10.17
2023-02-08T03:47:37.680Z,-10.20
2023-02-08T03:50:07.271Z,-10.22
2023-02-08T03:52:34.437Z,-10.24
2023-02-08T03:55:10.430Z,-10.27
2023-02-08T03:57:45.814Z,-10.30
2023-02-08T04:00:14.047Z,-10.32
2023-02-08T04:02:46.402Z,-10.37
2023-02-08T04:05:13.614Z,-10.41
2023-02-08T04:07:40.763Z,-10.43
2023-02-08T04:10:08.030Z,-10.45
2023-02-08T04:12:35.475Z,-10.47
2023-02-08T04:15:02.884Z,-10.48
2023-02-08T04:17:29.878Z,-10.50
2023-02-08T04:19:57.129Z,-10.52
2023-02-08T04:22:23.865Z,-10.53
2023-02-08T04:24:50.758Z,-10.53
2023-02-08T04:27:17.480Z,-10.52
2023-02-08T04:29:44.506Z,-10.51
2023-02-08T04:32:11.254Z,-10.48
2023-02-08T04:34:39.332Z,-10.48
2023-02-08T04:37:06.764Z,-10.48
2023-02-08T04:39:33.625Z,-10.49
2023-02-08T04:42:02.292Z,-10.52
2023-02-08T04:44:32.270Z,-10.53
2023-02-08T04:46:59.894Z,-10.54
2023-02-08T04:49:26.634Z,-10.54
2023-02-08T04:51:54.091Z,-10.54
2023-02-08T04:54:21.962Z,-10.54
2023-02-08T04:56:48.655Z,-10.57
2023-02-08T04:59:15.234Z,-10.59
2023-02-08T05:01:41.965Z,-10.62
2023-02-08T05:04:08.917Z,-10.61
2023-02-08T05:06:35.618Z,-10.61
2023-02-08T05:09:03.013Z,-10.59
2023-02-08T05:11:30.005Z,-10.57
2023-02-08T05:13:56.960Z,-10.56
2023-02-08T05:16:24.110Z,-10.55
2023-02-08T05:18:50.863Z,-10.54
2023-02-08T05:21:17.843Z,-10.52
2023-02-08T05:23:46.623Z,-10.50
2023-02-08T05:26:14.817Z,-10.45
2023-02-08T05:28:41.786Z,-10.41
2023-02-08T05:31:20.060Z,-10.37
2023-02-08T05:33:48.445Z,-10.35
2023-02-08T05:36:16.536Z,-10.32
2023-02-08T05:38:43.457Z,-10.29
2023-02-08T05:41:10.302Z,-10.25
2023-02-08T05:43:37.961Z,-10.23
2023-02-08T05:46:05.155Z,-10.20
2023-02-08T05:48:31.804Z,-10.18
2023-02-08T05:50:59.221Z,-10.14
2023-02-08T05:53:26.755Z,-10.09
2023-02-08T05:55:53.513Z,-10.05
2023-02-08T05:58:20.356Z,-10.00
2023-02-08T06:00:47.605Z,-9.94
2023-02-08T06:03:14.411Z,-9.89
2023-02-08T06:05:41.633Z,-9.82
2023-02-08T06:08:08.857Z,-9.78
2023-02-08T06:10:36.173Z,-9.75
2023-02-08T06:13:03.493Z,-9.70
2023-02-08T06:15:30.506Z,-9.65
2023-02-08T06:17:57.994Z,-9.62
2023-02-08T06:20:24.813Z,-9.57
2023-02-08T06:22:52.192Z,-9.53
2023-02-08T06:25:19.546Z,-9.47
2023-02-08T06:27:46.847Z,-9.42
2023-02-08T06:30:13.658Z,-9.38
2023-02-08T06:32:41.017Z,-9.37
2023-02-08T06:35:08.348Z,-9.35
2023-02-08T06:37:35.891Z,-9.31
2023-02-08T06:40:03.720Z,-9.24
2023-02-08T06:42:31.237Z,-9.17
2023-02-08T06:44:58.689Z,-9.12
2023-02-08T06:47:26.242Z,-9.09
2023-02-08T06:49:53.185Z,-9.06
2023-02-08T06:52:20.493Z,-9.00
2023-02-08T06:54:47.585Z,-8.95
2023-02-08T06:57:14.356Z,-8.95
2023-02-08T06:59:41.410Z,-8.97
2023-02-08T07:02:12.991Z,-8.99
2023-02-08T07:04:40.004Z,-9.00
2023-02-08T07:07:07.088Z,-8.97
2023-02-08T07:09:34.921Z,-8.93
2023-02-08T07:12:04.644Z,-8.90
2023-02-08T07:14:33.292Z,-8.88
2023-02-08T07:17:02.811Z,-8.87
2023-02-08T07:19:29.991Z,-8.84
2023-02-08T07:21:57.241Z,-8.79
2023-02-08T07:24:24.095Z,-8.78
2023-02-08T07:26:52.063Z,-8.80
2023-02-08T07:29:19.184Z,-8.78
2023-02-08T07:31:46.452Z,-8.74
2023-02-08T07:34:13.665Z,-8.71
2023-02-08T07:36:44.710Z,-8.66
2023-02-08T07:39:12.270Z,-8.58
2023-02-08T07:41:42.349Z,-8.48
2023-02-08T07:44:09.922Z,-8.40
2023-02-08T07:46:36.800Z,-8.29
2023-02-08T07:49:03.757Z,-8.19
2023-02-08T07:51:30.523Z,-8.11
2023-02-08T07:53:57.332Z,-8.04
2023-02-08T07:56:24.202Z,-7.98
2023-02-08T07:58:51.117Z,-7.95
2023-02-08T08:01:22.367Z,-7.90
2023-02-08T08:03:50.798Z,-7.85
2023-02-08T08:06:19.334Z,-7.83
2023-02-08T08:08:47.476Z,-7.76
2023-02-08T08:11:15.510Z,-7.68
2023-02-08T08:13:43.751Z,-7.62
2023-02-08T08:16:10.762Z,-7.58
2023-02-08T08:18:37.592Z,-7.55
2023-02-08T08:21:05.494Z,-7.55
2023-02-08T08:23:32.768Z,-7.55
2023-02-08T08:26:00.328Z,-7.50
2023-02-08T08:28:27.399Z,-7.44
2023-02-08T08:30:54.513Z,-7.32
2023-02-08T08:33:21.718Z,-7.21
2023-02-08T08:35:48.505Z,-7.15
2023-02-08T08:38:15.301Z,-7.06
2023-02-08T08:40:43.000Z,-6.98
2023-02-08T08:43:10.814Z,-6.94
2023-02-08T08:45:37.735Z,-6.90
2023-02-08T08:48:05.398Z,-6.89
2023-02-08T08:50:33.776Z,-6.85
2023-02-08T08:53:00.724Z,-6.74
2023-02-08T08:55:27.986Z,-6.62
2023-02-08T08:57:54.922Z,-6.55
2023-02-08T09:00:22.487Z,-6.48
2023-02-08T09:02:49.527Z,-6.42
2023-02-08T09:05:16.482Z,-6.39
2023-02-08T09:07:43.439Z,-6.34
2023-02-08T09:10:15.508Z,-6.24
2023-02-08T09:12:42.463Z,-6.14
2023-02-08T09:15:11.020Z,-6.09
2023-02-08T09:17:38.370Z,-6.08
2023-02-08T09:20:05.795Z,-6.05
2023-02-08T09:22:33.134Z,-5.99
2023-02-08T09:25:01.844Z,-5.95
2023-02-08T09:27:29.447Z,-5.89
2023-02-08T09:29:56.471Z,-5.80
2023-02-08T09:32:23.624Z,-5.70
2023-02-08T09:34:51.131Z,-5.65
2023-02-08T09:37:18.040Z,-5.63
2023-02-08T09:39:45.166Z,-5.63
2023-02-08T09:42:17.965Z,-5.58
2023-02-08T09:44:55.267Z,-5.52
2023-02-08T09:47:36.463Z,-5.42
2023-02-08T09:50:05.584Z,-5.35
2023-02-08T09:52:42.269Z,-5.30
2023-02-08T09:55:30.970Z,-5.26
2023-02-08T09:57:58.933Z,-5.21
2023-02-08T10:00:41.211Z,-5.16
2023-02-08T10:03:33.306Z,-5.11
2023-02-08T10:06:02.059Z,-5.10
2023-02-08T10:08:35.256Z,-5.08
2023-02-08T10:11:08.978Z,-4.99
2023-02-08T10:14:03.156Z,-4.90
2023-02-08T10:16:49.515Z,-4.83
2023-02-08T10:19:35.636Z,-4.81
2023-02-08T10:22:34.892Z,-4.77
2023-02-08T10:25:23.526Z,-4.72
2023-02-08T10:28:12.609Z,-4.66
2023-02-08T10:30:39.513Z,-4.60
2023-02-08T10:33:11.878Z,-4.51
2023-02-08T10:35:41.884Z,-4.40
2023-02-08T10:38:44.242Z,-4.30
2023-02-08T10:41:35.396Z,-4.27
2023-02-08T10:44:30.396Z,-4.24
2023-02-08T10:47:15.777Z,-4.21
2023-02-08T10:50:09.591Z,-4.18
2023-02-08T10:52:37.431Z,-4.10
2023-02-08T10:55:15.486Z,-4.03
2023-02-08T10:57:43.487Z,-3.93
2023-02-08T11:00:13.296Z,-3.87
2023-02-08T11:02:41.013Z,-3.83
2023-02-08T11:05:13.266Z,-3.79
2023-02-08T11:07:41.814Z,-3.81
2023-02-08T11:10:17.669Z,-3.85
2023-02-08T11:12:57.932Z,-3.82
2023-02-08T11:15:29.096Z,-3.77
2023-02-08T11:18:00.529Z,-3.73
2023-02-08T11:20:36.142Z,-3.70
2023-02-08T11:23:04.814Z,-3.68
2023-02-08T11:25:38.542Z,-3.66
2023-02-08T11:28:41.492Z,-3.64
2023-02-08T11:31:19.547Z,-3.62
2023-02-08T11:34:05.879Z,-3.64
2023-02-08T11:36:33.960Z,-3.64
2023-02-08T11:39:02.934Z,-3.64
2023-02-08T11:41:29.991Z,-3.60
2023-02-08T11:44:01.239Z,-3.58
2023-02-08T11:46:28.988Z,-3.53
2023-02-08T11:48:55.904Z,-3.46
2023-02-08T11:51:31.993Z,-3.42
2023-02-08T11:54:00.380Z,-3.43
2023-02-08T11:56:28.893Z,-3.43
2023-02-08T11:59:15.317Z,-3.38
2023-02-08T12:01:43.118Z,-3.35
2023-02-08T12:04:11.309Z,-3.32
2023-02-08T12:06:58.261Z,-3.30
2023-02-08T12:09:36.425Z,-3.31
2023-02-08T12:12:15.028Z,-3.41
2023-02-08T12:15:13.017Z,-3.45
2023-02-08T12:17:52.585Z,-3.50
2023-02-08T12:20:30.129Z,-3.52
2023-02-08T12:23:09.592Z,-3.56
2023-02-08T12:25:43.065Z,-3.58
2023-02-08T12:28:16.515Z,-3.58
2023-02-08T12:30:57.487Z,-3.58
2023-02-08T12:33:46.531Z,-3.62
2023-02-08T12:37:11.222Z,-3.65
2023-02-08T12:40:38.802Z,-3.66
2023-02-08T12:43:21.269Z,-3.69
2023-02-08T12:45:57.382Z,-3.72
2023-02-08T12:48:33.737Z,-3.76
2023-02-08T12:51:06.612Z,-3.77
2023-02-08T12:53:38.875Z,-3.78
2023-02-08T12:56:08.187Z,-3.76
2023-02-08T12:58:39.814Z,-3.74
2023-02-08T13:01:34.354Z,-3.73
2023-02-08T13:04:09.060Z,-3.74
2023-02-08T13:06:41.716Z,-3.74
2023-02-08T13:16:46.872Z,-3.73
2023-02-08T13:19:27.301Z,-3.74
2023-02-08T13:21:55.721Z,-3.73
2023-02-08T13:24:52.439Z,-3.72
2023-02-08T13:27:29.955Z,-3.71
2023-02-08T13:29:58.648Z,-3.72
2023-02-08T13:32:42.776Z,-3.72
2023-02-08T13:35:20.150Z,-3.73
2023-02-08T13:38:12.392Z,-3.73
2023-02-08T13:40:41.127Z,-3.74
2023-02-08T13:43:34.316Z,-3.73
2023-02-08T13:46:03.480Z,-3.73
2023-02-08T13:48:48.911Z,-3.75
2023-02-08T13:51:32.656Z,-3.77
2023-02-08T13:54:01.069Z,-3.79
2023-02-08T13:56:48.890Z,-3.81
2023-02-08T13:59:29.114Z,-3.83
2023-02-08T14:02:19.113Z,-3.86
2023-02-08T14:05:19.962Z,-3.87
2023-02-08T14:07:48.234Z,-3.90
2023-02-08T14:10:37.704Z,-3.92
2023-02-08T14:13:25.333Z,-3.94
2023-02-08T14:16:24.382Z,-3.97
2023-02-08T14:18:57.934Z,-4.01
2023-02-08T14:21:45.987Z,-4.06
2023-02-08T14:24:23.549Z,-4.10
2023-02-08T14:26:51.853Z,-4.13
2023-02-08T14:29:24.573Z,-4.16
2023-02-08T14:31:55.559Z,-4.20
2023-02-08T14:34:34.894Z,-4.23
2023-02-08T14:37:27.816Z,-4.27
2023-02-08T14:40:23.563Z,-4.30
2023-02-08T14:43:03.334Z,-4.35
2023-02-08T14:45:37.970Z,-4.40
2023-02-08T14:48:20.766Z,-4.44
2023-02-08T14:51:10.884Z,-4.49
2023-02-08T14:53:42.322Z,-4.53
2023-02-08T14:56:10.393Z,-4.58
2023-02-08T14:58:43.627Z,-4.63
2023-02-08T15:01:45.046Z,-4.67
2023-02-08T15:04:13.485Z,-4.71
2023-02-08T15:07:09.364Z,-4.77
2023-02-08T15:09:39.301Z,-4.84
2023-02-08T15:12:34.516Z,-4.90
2023-02-08T15:15:07.157Z,-4.95
2023-02-08T15:17:39.304Z,-5.00
2023-02-08T15:20:09.414Z,-5.04
2023-02-08T15:22:38.621Z,-5.08
2023-02-08T15:25:34.801Z,-5.12
2023-02-08T15:28:24.061Z,-5.15
2023-02-08T15:31:11.885Z,-5.19
2023-02-08T15:33:40.743Z,-5.22
2023-02-08T15:36:15.311Z,-5.25
2023-02-08T15:38:45.083Z,-5.30
2023-02-08T15:41:14.517Z,-5.33
2023-02-08T15:43:43.074Z,-5.37
2023-02-08T15:46:22.290Z,-5.42
2023-02-08T15:48:51.200Z,-5.48
2023-02-08T15:51:23.222Z,-5.55
2023-02-08T15:53:52.767Z,-5.61
2023-02-08T15:56:36.795Z,-5.66
2023-02-08T15:59:07.015Z,-5.69
2023-02-08T16:01:37.121Z,-5.71
2023-02-08T16:04:12.648Z,-5.76
2023-02-08T16:06:53.407Z,-5.82
2023-02-08T16:09:27.526Z,-5.87
2023-02-08T16:12:00.823Z,-5.89
2023-02-08T16:14:38.040Z,-5.91
2023-02-08T16:17:44.230Z,-5.95
2023-02-08T16:20:41.470Z,-6.02
2023-02-08T16:23:25.539Z,-6.09
2023-02-08T16:25:54.129Z,-6.12
2023-02-08T16:28:30.216Z,-6.16
2023-02-08T16:31:00.038Z,-6.21
2023-02-08T16:33:28.200Z,-6.26
2023-02-08T16:36:02.003Z,-6.32
2023-02-08T16:38:31.778Z,-6.40
2023-02-08T16:41:12.338Z,-6.46
2023-02-08T16:43:44.521Z,-6.47
2023-02-08T16:46:16.420Z,-6.47
2023-02-08T16:48:56.849Z,-6.48
2023-02-08T16:51:29.216Z,-6.48
2023-02-08T16:54:02.531Z,-6.48
2023-02-08T16:56:30.732Z,-6.50
2023-02-08T16:58:58.987Z,-6.55
2023-02-08T17:01:28.712Z,-6.59
2023-02-08T17:03:57.070Z,-6.66
2023-02-08T17:06:34.771Z,-6.70
2023-02-08T17:09:06.358Z,-6.73
2023-02-08T17:11:36.196Z,-6.75
2023-02-08T17:14:05.227Z,-6.79
2023-02-08T17:16:34.497Z,-6.83
2023-02-08T17:19:03.036Z,-6.89
2023-02-08T17:21:31.434Z,-6.97
2023-02-08T17:23:59.486Z,-7.07
2023-02-08T17:26:37.950Z,-7.14
2023-02-08T17:29:06.182Z,-7.20
2023-02-08T17:31:35.902Z,-7.24
2023-02-08T17:34:07.034Z,-7.28
2023-02-08T17:36:37.130Z,-7.31
2023-02-08T17:39:05.519Z,-7.34
2023-02-08T17:41:35.511Z,-7.37
2023-02-08T17:44:04.278Z,-7.41
2023-02-08T17:46:33.484Z,-7.45
2023-02-08T17:49:01.938Z,-7.50
2023-02-08T17:51:30.733Z,-7.54
2023-02-08T17:53:58.959Z,-7.53
2023-02-08T17:56:28.645Z,-7.55
2023-02-08T17:58:56.707Z,-7.59
2023-02-08T18:01:26.336Z,-7.63
2023-02-08T18:03:55.068Z,-7.67
2023-02-08T18:06:25.083Z,-7.69
2023-02-08T18:08:56.439Z,-7.68
2023-02-08T18:11:24.734Z,-7.71
2023-02-08T18:13:53.454Z,-7.72
2023-02-08T18:16:24.047Z,-7.77
2023-02-08T18:18:55.643Z,-7.85
2023-02-08T18:21:25.947Z,-7.91
2023-02-08T18:23:55.744Z,-7.93
2023-02-08T18:26:24.299Z,-7.93
2023-02-08T18:28:53.023Z,-7.93
2023-02-08T18:31:21.308Z,-7.94
2023-02-08T18:33:50.244Z,-8.00
2023-02-08T18:36:19.625Z,-8.05
2023-02-08T18:38:52.679Z,-8.13
2023-02-08T18:41:26.261Z,-8.23
2023-02-08T18:43:55.402Z,-8.32
2023-02-08T18:46:26.390Z,-8.38
2023-02-08T18:48:54.690Z,-8.43
2023-02-08T18:51:23.407Z,-8.47
2023-02-08T18:53:53.753Z,-8.50
2023-02-08T18:56:24.022Z,-8.50
2023-02-08T18:58:52.956Z,-8.48
2023-02-08T19:01:22.681Z,-8.45
2023-02-08T19:03:52.020Z,-8.42
2023-02-08T19:06:22.826Z,-8.40
2023-02-08T19:08:52.448Z,-8.36
2023-02-08T19:11:20.583Z,-8.31
2023-02-08T19:13:49.617Z,-8.23
2023-02-08T19:16:17.988Z,-8.19
2023-02-08T19:18:48.566Z,-8.19
2023-02-08T19:21:17.588Z,-8.23
2023-02-08T19:23:47.581Z,-8.32
2023-02-08T19:26:25.652Z,-8.40
2023-02-08T19:28:57.737Z,-8.46
2023-02-08T19:31:26.790Z,-8.48
2023-02-08T19:33:58.505Z,-8.47
2023-02-08T19:36:29.166Z,-8.46
2023-02-08T19:38:57.574Z,-8.50
2023-02-08T19:41:32.503Z,-8.55
2023-02-08T19:44:01.648Z,-8.61
2023-02-08T19:46:29.964Z,-8.63
2023-02-08T19:49:01.676Z,-8.66
2023-02-08T19:51:32.292Z,-8.65
2023-02-08T19:54:01.447Z,-8.67
2023-02-08T19:56:33.875Z,-8.68
2023-02-08T19:59:06.334Z,-8.67
2023-02-08T20:01:35.522Z,-8.64
2023-02-08T20:04:05.773Z,-8.63
2023-02-08T20:06:36.083Z,-8.63
2023-02-08T20:09:05.593Z,-8.68
2023-02-08T20:11:45.121Z,-8.75
2023-02-08T20:14:19.475Z,-8.81
2023-02-08T20:16:48.148Z,-8.84
2023-02-08T20:19:16.499Z,-8.86
2023-02-08T20:21:45.591Z,-8.88
2023-02-08T20:24:14.022Z,-8.92
2023-02-08T20:26:43.973Z,-8.94
2023-02-08T20:29:12.719Z,-8.93
2023-02-08T20:31:43.371Z,-8.96
2023-02-08T20:34:13.455Z,-9.03
2023-02-08T20:36:49.772Z,-9.09
2023-02-08T20:39:22.653Z,-9.16
2023-02-08T20:41:51.105Z,-9.23
2023-02-08T20:44:19.979Z,-9.28
2023-02-08T20:46:48.222Z,-9.30
2023-02-08T20:49:22.099Z,-9.31
2023-02-08T20:51:52.165Z,-9.34
2023-02-08T20:54:20.491Z,-9.36
2023-02-08T20:56:48.768Z,-9.38
2023-02-08T20:59:17.061Z,-9.39
2023-02-08T21:01:46.602Z,-9.42
2023-02-08T21:04:17.186Z,-9.46
2023-02-08T21:06:46.335Z,-9.51
2023-02-08T21:09:16.159Z,-9.58
2023-02-08T21:11:44.704Z,-9.66
2023-02-08T21:14:19.095Z,-9.74
2023-02-08T21:16:48.781Z,-9.82
2023-02-08T21:19:17.443Z,-9.89
2023-02-08T21:21:45.936Z,-9.94
2023-02-08T21:24:15.243Z,-10.00
2023-02-08T21:26:43.307Z,-10.03
2023-02-08T21:29:11.501Z,-10.05
2023-02-08T21:31:39.782Z,-10.07
2023-02-08T21:34:08.188Z,-10.09
2023-02-08T21:36:36.612Z,-10.12
2023-02-08T21:39:05.982Z,-10.15
2023-02-08T21:41:34.380Z,-10.19
2023-02-08T21:44:03.931Z,-10.24
2023-02-08T21:46:32.326Z,-10.28
2023-02-08T21:49:19.584Z,-10.33
2023-02-08T21:52:07.716Z,-10.37
2023-02-08T21:54:41.736Z,-10.41
2023-02-08T21:57:19.100Z,-10.44
2023-02-08T21:59:51.963Z,-10.47
2023-02-08T22:02:28.173Z,-10.49
2023-02-08T22:05:00.286Z,-10.53
2023-02-08T22:07:32.199Z,-10.57
2023-02-08T22:10:07.475Z,-10.64
2023-02-08T22:12:40.341Z,-10.78
2023-02-08T22:15:12.136Z,-10.89
2023-02-08T22:17:44.168Z,-10.96
2023-02-08T22:20:15.916Z,-11.04
2023-02-08T22:22:47.221Z,-11.11
2023-02-08T22:25:18.803Z,-11.17
2023-02-08T22:27:49.470Z,-11.23
2023-02-08T22:30:20.984Z,-11.33
2023-02-08T22:32:52.558Z,-11.41
2023-02-08T22:35:22.762Z,-11.47
2023-02-08T22:37:52.136Z,-11.52
2023-02-08T22:40:23.769Z,-11.61
2023-02-08T22:42:54.206Z,-11.68
2023-02-08T22:45:24.428Z,-11.71
2023-02-08T22:47:55.217Z,-11.73
2023-02-08T22:50:26.408Z,-11.75
2023-02-08T23:00:32.498Z,-11.90
2023-02-08T23:03:00.810Z,-11.95
2023-02-08T23:05:29.387Z,-12.01
2023-02-08T23:07:58.022Z,-12.09
2023-02-08T23:10:26.300Z,-12.15
2023-02-08T23:12:54.690Z,-12.21
2023-02-08T23:15:22.954Z,-12.25
2023-02-08T23:17:52.428Z,-12.32
2023-02-08T23:20:20.537Z,-12.44
2023-02-08T23:22:49.318Z,-12.53
2023-02-08T23:25:18.131Z,-12.57
2023-02-08T23:27:46.585Z,-12.57
2023-02-08T23:30:15.305Z,-12.56
2023-02-08T23:32:43.985Z,-12.55
2023-02-08T23:35:12.440Z,-12.56
2023-02-08T23:37:40.935Z,-12.55
2023-02-08T23:40:10.400Z,-12.56
2023-02-08T23:42:38.739Z,-12.57
2023-02-08T23:45:08.030Z,-12.57
2023-02-08T23:47:37.721Z,-12.56
2023-02-08T23:50:07.091Z,-12.54
2023-02-08T23:52:35.506Z,-12.52
2023-02-08T23:55:05.132Z,-12.48
2023-02-08T23:57:36.681Z,-12.43
